Morrisville, VT

9:28 AM EST on December 18, 2014 (GMT -0500)
Villiage-Town Line | Change Station
CLOSE
Current Station
Personal Weather Station
Location: Morristown, VT
Elevation: 869 ft
Nearby Weather Stations

Elev 869 ft 44.55 °N, 72.58 °W | Updated 8 seconds ago

Light Snow
Light Snow Mist
31.5 °F
Feels Like 32 °F
N
0.0
Wind Variable Wind from NNE
Gusts 0.0 mph

Today
High -- | Low -- °F
--% Chance of Precip.
Yesterday
High -- | Low -- °F
Precip. -- in
7:22 AM 4:11 PM
Waning Crescent, 14% visible
Pressure 29.82 in
Visibility 3.0 miles
Clouds Mostly Cloudy 1400 ft
Overcast 2200 ft
Windchill 32 °F
Dew Point 31 °F
Humidity 97%
Rainfall 0.00 in
Snow Depth Not available.
UV 0 out of 12
Pollen .10 out of 12
Air Quality Not available.
Flu Activity Not available.
SPECI KMVL 181422Z AUTO 02003KT 3SM -SN BR BKN014 OVC022 00/M02 A2982 RMK AO2 SNB1359 P0000 T00001017 TSNO

More Conditions Fewer Conditions

Pressure 29.82 in
Visibility 3.0 miles
Clouds Mostly Cloudy 1400 ft
Overcast 2200 ft
Windchill 32 °F
Dew Point 31 °F
Humidity 97%
Rainfall 0.00 in
Snow Depth Not available.
UV 0 out of 12
Pollen .10 out of 12
Air Quality Not available.
Flu Activity Not available.
SPECI KMVL 181422Z AUTO 02003KT 3SM -SN BR BKN014 OVC022 00/M02 A2982 RMK AO2 SNB1359 P0000 T00001017 TSNO

More Conditions Fewer Conditions

10-Day Weather Forecast

Almanac

Astronomy

Dec. 18, 2014 Rise Set
Actual Time
Civil Twilight
Nautical Twilight
Astronomical Twilight
Moon
Length of Visible Light
Length of Day
Tomorrow will be .
, % of the Moon is Illuminated

Today's Extremes

State Highs State Lows

Community

WunderPhotos

Upload Photos

1,778,929 photos uploaded!

WunderBlogs® & News

Nearby

Air Quality

  Air Quality AQ Index Pollutant
Not available.

Snow Depth

Station Depth Elevation

Earthquake Activity

City Distance Mag. Time & Date
Minimum magnitude displayed is 2.5.

Coastal Water Temperatures

Place Temperature

Nearby Weather Stations